sensor_id;sensor_type;location;lat;lon;timestamp;P1;durP1;ratioP1;P2;durP2;ratioP2
50988;SDS011;37008;52.210;21.112;2024-02-21T00:00:46;11.30;;;4.85;;
50988;SDS011;37008;52.210;21.112;2024-02-21T00:03:12;21.20;;;5.70;;
50988;SDS011;37008;52.210;21.112;2024-02-21T00:05:37;21.05;;;5.50;;
50988;SDS011;37008;52.210;21.112;2024-02-21T00:08:03;18.40;;;5.43;;
50988;SDS011;37008;52.210;21.112;2024-02-21T00:10:29;15.93;;;4.97;;
50988;SDS011;37008;52.210;21.112;2024-02-21T00:12:59;23.95;;;6.28;;
50988;SDS011;37008;52.210;21.112;2024-02-21T00:15:25;17.92;;;5.57;;
50988;SDS011;37008;52.210;21.112;2024-02-21T00:17:51;21.98;;;6.95;;
50988;SDS011;37008;52.210;21.112;2024-02-21T00:20:16;23.70;;;6.40;;
50988;SDS011;37008;52.210;21.112;2024-02-21T00:22:42;18.90;;;5.68;;
50988;SDS011;37008;52.210;21.112;2024-02-21T00:25:11;20.35;;;5.68;;
50988;SDS011;37008;52.210;21.112;2024-02-21T00:27:37;16.08;;;5.75;;
50988;SDS011;37008;52.210;21.112;2024-02-21T00:30:04;14.65;;;5.70;;
50988;SDS011;37008;52.210;21.112;2024-02-21T00:32:30;24.83;;;6.43;;
50988;SDS011;37008;52.210;21.112;2024-02-21T00:34:57;20.38;;;5.60;;
50988;SDS011;37008;52.210;21.112;2024-02-21T00:37:22;15.50;;;6.07;;
50988;SDS011;37008;52.210;21.112;2024-02-21T00:39:48;19.98;;;6.38;;
50988;SDS011;37008;52.210;21.112;2024-02-21T00:42:14;16.00;;;5.45;;
50988;SDS011;37008;52.210;21.112;2024-02-21T00:44:39;18.80;;;5.65;;
50988;SDS011;37008;52.210;21.112;2024-02-21T00:47:05;17.30;;;5.43;;
50988;SDS011;37008;52.210;21.112;2024-02-21T00:49:31;17.70;;;5.65;;
50988;SDS011;37008;52.210;21.112;2024-02-21T00:51:56;19.63;;;5.95;;
50988;SDS011;37008;52.210;21.112;2024-02-21T00:54:22;15.82;;;5.53;;
50988;SDS011;37008;52.210;21.112;2024-02-21T00:56:48;17.50;;;5.85;;
50988;SDS011;37008;52.210;21.112;2024-02-21T00:59:13;21.50;;;6.32;;
50988;SDS011;37008;52.210;21.112;2024-02-21T01:01:39;22.05;;;7.25;;
50988;SDS011;37008;52.210;21.112;2024-02-21T01:04:07;12.63;;;5.07;;
50988;SDS011;37008;52.210;21.112;2024-02-21T01:06:34;20.33;;;5.80;;
50988;SDS011;37008;52.210;21.112;2024-02-21T01:08:59;20.98;;;6.25;;
50988;SDS011;37008;52.210;21.112;2024-02-21T01:11:25;16.38;;;6.70;;
50988;SDS011;37008;52.210;21.112;2024-02-21T01:13:51;24.05;;;6.88;;
50988;SDS011;37008;52.210;21.112;2024-02-21T01:16:16;22.63;;;6.78;;
50988;SDS011;37008;52.210;21.112;2024-02-21T01:18:42;24.33;;;6.97;;
50988;SDS011;37008;52.210;21.112;2024-02-21T01:21:08;21.13;;;6.72;;
50988;SDS011;37008;52.210;21.112;2024-02-21T01:23:35;21.27;;;7.63;;
50988;SDS011;37008;52.210;21.112;2024-02-21T01:26:01;19.05;;;7.28;;
50988;SDS011;37008;52.210;21.112;2024-02-21T01:28:27;20.38;;;7.07;;
50988;SDS011;37008;52.210;21.112;2024-02-21T01:30:53;26.60;;;8.60;;
50988;SDS011;37008;52.210;21.112;2024-02-21T01:33:19;20.92;;;8.05;;
50988;SDS011;37008;52.210;21.112;2024-02-21T01:35:44;25.17;;;8.07;;
50988;SDS011;37008;52.210;21.112;2024-02-21T01:38:12;22.02;;;8.88;;
50988;SDS011;37008;52.210;21.112;2024-02-21T01:40:38;21.08;;;6.88;;
50988;SDS011;37008;52.210;21.112;2024-02-21T01:43:03;24.33;;;8.43;;
50988;SDS011;37008;52.210;21.112;2024-02-21T01:45:40;21.05;;;8.18;;
50988;SDS011;37008;52.210;21.112;2024-02-21T01:48:05;22.42;;;8.02;;
50988;SDS011;37008;52.210;21.112;2024-02-21T01:50:31;22.80;;;7.85;;
50988;SDS011;37008;52.210;21.112;2024-02-21T01:52:58;19.27;;;7.82;;
50988;SDS011;37008;52.210;21.112;2024-02-21T01:55:24;19.80;;;7.50;;
50988;SDS011;37008;52.210;21.112;2024-02-21T01:57:50;25.95;;;8.63;;
50988;SDS011;37008;52.210;21.112;2024-02-21T02:00:15;26.85;;;10.18;;
50988;SDS011;37008;52.210;21.112;2024-02-21T02:02:42;22.58;;;8.40;;
50988;SDS011;37008;52.210;21.112;2024-02-21T02:05:08;22.65;;;8.23;;
50988;SDS011;37008;52.210;21.112;2024-02-21T02:07:35;26.20;;;9.07;;
50988;SDS011;37008;52.210;21.112;2024-02-21T02:10:01;25.42;;;9.95;;
50988;SDS011;37008;52.210;21.112;2024-02-21T02:12:27;23.73;;;9.52;;
50988;SDS011;37008;52.210;21.112;2024-02-21T02:14:59;21.50;;;9.82;;
50988;SDS011;37008;52.210;21.112;2024-02-21T02:17:26;23.75;;;10.38;;
50988;SDS011;37008;52.210;21.112;2024-02-21T02:19:51;25.83;;;10.80;;
50988;SDS011;37008;52.210;21.112;2024-02-21T02:22:19;27.75;;;12.00;;
50988;SDS011;37008;52.210;21.112;2024-02-21T02:24:48;24.98;;;11.93;;
50988;SDS011;37008;52.210;21.112;2024-02-21T02:27:14;24.92;;;11.05;;
50988;SDS011;37008;52.210;21.112;2024-02-21T02:29:40;29.17;;;12.38;;
50988;SDS011;37008;52.210;21.112;2024-02-21T02:32:06;28.45;;;11.25;;
50988;SDS011;37008;52.210;21.112;2024-02-21T02:34:31;29.40;;;12.68;;
50988;SDS011;37008;52.210;21.112;2024-02-21T02:36:57;25.42;;;13.52;;
50988;SDS011;37008;52.210;21.112;2024-02-21T02:39:22;32.75;;;12.75;;
50988;SDS011;37008;52.210;21.112;2024-02-21T02:41:48;28.20;;;12.80;;
50988;SDS011;37008;52.210;21.112;2024-02-21T02:44:14;25.60;;;13.50;;
50988;SDS011;37008;52.210;21.112;2024-02-21T02:46:40;30.40;;;12.90;;
50988;SDS011;37008;52.210;21.112;2024-02-21T02:49:06;26.63;;;13.55;;
50988;SDS011;37008;52.210;21.112;2024-02-21T02:51:32;28.30;;;13.30;;
50988;SDS011;37008;52.210;21.112;2024-02-21T02:53:57;28.13;;;14.02;;
50988;SDS011;37008;52.210;21.112;2024-02-21T02:56:23;28.30;;;13.13;;
50988;SDS011;37008;52.210;21.112;2024-02-21T02:58:48;32.83;;;14.23;;
50988;SDS011;37008;52.210;21.112;2024-02-21T03:01:14;30.02;;;13.05;;
50988;SDS011;37008;52.210;21.112;2024-02-21T03:03:40;31.13;;;14.18;;
50988;SDS011;37008;52.210;21.112;2024-02-21T03:06:05;30.38;;;13.85;;
50988;SDS011;37008;52.210;21.112;2024-02-21T03:08:31;26.35;;;13.35;;
50988;SDS011;37008;52.210;21.112;2024-02-21T03:10:58;27.17;;;12.77;;
50988;SDS011;37008;52.210;21.112;2024-02-21T03:13:24;23.02;;;12.70;;
50988;SDS011;37008;52.210;21.112;2024-02-21T03:15:50;32.08;;;13.88;;
50988;SDS011;37008;52.210;21.112;2024-02-21T03:18:16;24.98;;;14.23;;
50988;SDS011;37008;52.210;21.112;2024-02-21T03:20:42;33.28;;;14.80;;
50988;SDS011;37008;52.210;21.112;2024-02-21T03:23:07;32.65;;;12.77;;
50988;SDS011;37008;52.210;21.112;2024-02-21T03:25:33;27.52;;;13.77;;
50988;SDS011;37008;52.210;21.112;2024-02-21T03:27:58;22.48;;;12.82;;
50988;SDS011;37008;52.210;21.112;2024-02-21T03:30:24;32.30;;;13.73;;
50988;SDS011;37008;52.210;21.112;2024-02-21T03:32:50;30.45;;;13.55;;
50988;SDS011;37008;52.210;21.112;2024-02-21T03:35:16;29.38;;;13.68;;
50988;SDS011;37008;52.210;21.112;2024-02-21T03:37:42;29.70;;;13.38;;
50988;SDS011;37008;52.210;21.112;2024-02-21T03:40:10;29.80;;;12.98;;
50988;SDS011;37008;52.210;21.112;2024-02-21T03:42:36;29.40;;;12.98;;
50988;SDS011;37008;52.210;21.112;2024-02-21T03:45:02;33.00;;;13.10;;
50988;SDS011;37008;52.210;21.112;2024-02-21T03:47:28;28.55;;;12.50;;
50988;SDS011;37008;52.210;21.112;2024-02-21T03:49:54;25.88;;;12.57;;
50988;SDS011;37008;52.210;21.112;2024-02-21T03:52:20;25.45;;;14.70;;
50988;SDS011;37008;52.210;21.112;2024-02-21T03:54:45;22.85;;;13.07;;
50988;SDS011;37008;52.210;21.112;2024-02-21T03:57:11;31.05;;;14.85;;
50988;SDS011;37008;52.210;21.112;2024-02-21T03:59:36;24.23;;;13.07;;
50988;SDS011;37008;52.210;21.112;2024-02-21T04:02:05;28.70;;;13.02;;
50988;SDS011;37008;52.210;21.112;2024-02-21T04:04:33;34.38;;;14.18;;
50988;SDS011;37008;52.210;21.112;2024-02-21T04:07:00;33.25;;;13.90;;
50988;SDS011;37008;52.210;21.112;2024-02-21T04:09:26;31.40;;;13.20;;
50988;SDS011;37008;52.210;21.112;2024-02-21T04:11:51;28.17;;;12.25;;
50988;SDS011;37008;52.210;21.112;2024-02-21T04:14:17;24.77;;;11.13;;
50988;SDS011;37008;52.210;21.112;2024-02-21T04:16:42;27.20;;;12.07;;
50988;SDS011;37008;52.210;21.112;2024-02-21T04:19:08;23.67;;;11.43;;
50988;SDS011;37008;52.210;21.112;2024-02-21T04:21:34;30.20;;;11.32;;
50988;SDS011;37008;52.210;21.112;2024-02-21T04:24:00;22.27;;;11.82;;
50988;SDS011;37008;52.210;21.112;2024-02-21T04:26:27;28.67;;;11.80;;
50988;SDS011;37008;52.210;21.112;2024-02-21T04:28:52;25.70;;;11.75;;
50988;SDS011;37008;52.210;21.112;2024-02-21T04:31:18;29.73;;;11.07;;
50988;SDS011;37008;52.210;21.112;2024-02-21T04:33:43;24.77;;;11.80;;
50988;SDS011;37008;52.210;21.112;2024-02-21T04:36:09;23.85;;;11.73;;
50988;SDS011;37008;52.210;21.112;2024-02-21T04:38:35;28.80;;;12.25;;
50988;SDS011;37008;52.210;21.112;2024-02-21T04:41:00;24.65;;;12.77;;
50988;SDS011;37008;52.210;21.112;2024-02-21T04:43:26;35.55;;;13.82;;
50988;SDS011;37008;52.210;21.112;2024-02-21T04:45:52;26.08;;;12.60;;
50988;SDS011;37008;52.210;21.112;2024-02-21T04:48:18;30.50;;;12.40;;
50988;SDS011;37008;52.210;21.112;2024-02-21T04:50:44;25.90;;;13.38;;
50988;SDS011;37008;52.210;21.112;2024-02-21T04:53:10;33.30;;;14.27;;
50988;SDS011;37008;52.210;21.112;2024-02-21T04:55:35;28.80;;;14.13;;
50988;SDS011;37008;52.210;21.112;2024-02-21T04:58:01;37.60;;;15.93;;
50988;SDS011;37008;52.210;21.112;2024-02-21T05:00:27;33.03;;;16.33;;
50988;SDS011;37008;52.210;21.112;2024-02-21T05:02:53;39.75;;;16.88;;
50988;SDS011;37008;52.210;21.112;2024-02-21T05:05:18;41.38;;;17.23;;
50988;SDS011;37008;52.210;21.112;2024-02-21T05:07:44;38.13;;;17.85;;
50988;SDS011;37008;52.210;21.112;2024-02-21T05:10:10;41.53;;;17.67;;
50988;SDS011;37008;52.210;21.112;2024-02-21T05:12:35;35.95;;;18.30;;
50988;SDS011;37008;52.210;21.112;2024-02-21T05:15:01;34.72;;;17.88;;
50988;SDS011;37008;52.210;21.112;2024-02-21T05:17:28;37.03;;;18.10;;
50988;SDS011;37008;52.210;21.112;2024-02-21T05:19:53;36.10;;;17.80;;
50988;SDS011;37008;52.210;21.112;2024-02-21T05:22:19;31.70;;;16.70;;
50988;SDS011;37008;52.210;21.112;2024-02-21T05:24:45;33.65;;;17.70;;
50988;SDS011;37008;52.210;21.112;2024-02-21T05:27:10;27.35;;;16.42;;
50988;SDS011;37008;52.210;21.112;2024-02-21T05:29:36;33.35;;;16.27;;
50988;SDS011;37008;52.210;21.112;2024-02-21T05:32:02;26.90;;;15.48;;
50988;SDS011;37008;52.210;21.112;2024-02-21T05:34:27;35.80;;;16.00;;
50988;SDS011;37008;52.210;21.112;2024-02-21T05:36:53;32.60;;;17.65;;
50988;SDS011;37008;52.210;21.112;2024-02-21T05:39:19;30.48;;;14.82;;
50988;SDS011;37008;52.210;21.112;2024-02-21T05:41:47;37.22;;;16.73;;
50988;SDS011;37008;52.210;21.112;2024-02-21T05:44:13;30.55;;;15.77;;
50988;SDS011;37008;52.210;21.112;2024-02-21T05:46:39;32.80;;;16.15;;
50988;SDS011;37008;52.210;21.112;2024-02-21T05:49:04;30.60;;;15.70;;
50988;SDS011;37008;52.210;21.112;2024-02-21T05:51:32;43.67;;;15.93;;
50988;SDS011;37008;52.210;21.112;2024-02-21T05:53:58;32.20;;;15.15;;
50988;SDS011;37008;52.210;21.112;2024-02-21T05:56:24;32.90;;;15.15;;
50988;SDS011;37008;52.210;21.112;2024-02-21T05:58:50;32.13;;;14.40;;
50988;SDS011;37008;52.210;21.112;2024-02-21T06:01:16;33.00;;;15.25;;
50988;SDS011;37008;52.210;21.112;2024-02-21T06:03:42;34.72;;;15.88;;
50988;SDS011;37008;52.210;21.112;2024-02-21T06:06:08;36.35;;;17.25;;
50988;SDS011;37008;52.210;21.112;2024-02-21T06:08:34;27.42;;;15.75;;
50988;SDS011;37008;52.210;21.112;2024-02-21T06:11:00;35.80;;;15.27;;
50988;SDS011;37008;52.210;21.112;2024-02-21T06:13:26;32.40;;;15.63;;
50988;SDS011;37008;52.210;21.112;2024-02-21T06:15:52;35.30;;;15.32;;
50988;SDS011;37008;52.210;21.112;2024-02-21T06:18:18;30.77;;;15.98;;
50988;SDS011;37008;52.210;21.112;2024-02-21T06:20:44;34.80;;;16.80;;
50988;SDS011;37008;52.210;21.112;2024-02-21T06:23:11;31.10;;;16.48;;
50988;SDS011;37008;52.210;21.112;2024-02-21T06:25:46;34.78;;;16.25;;
50988;SDS011;37008;52.210;21.112;2024-02-21T06:28:12;34.78;;;16.20;;
50988;SDS011;37008;52.210;21.112;2024-02-21T06:30:39;39.55;;;15.57;;
50988;SDS011;37008;52.210;21.112;2024-02-21T06:33:05;41.28;;;16.73;;
50988;SDS011;37008;52.210;21.112;2024-02-21T06:35:30;33.28;;;17.17;;
50988;SDS011;37008;52.210;21.112;2024-02-21T06:37:56;40.15;;;17.15;;
50988;SDS011;37008;52.210;21.112;2024-02-21T06:40:22;35.33;;;17.25;;
50988;SDS011;37008;52.210;21.112;2024-02-21T06:42:48;35.67;;;17.67;;
50988;SDS011;37008;52.210;21.112;2024-02-21T06:45:14;33.80;;;17.38;;
50988;SDS011;37008;52.210;21.112;2024-02-21T06:47:41;33.55;;;18.33;;
50988;SDS011;37008;52.210;21.112;2024-02-21T06:50:07;33.38;;;18.17;;
50988;SDS011;37008;52.210;21.112;2024-02-21T06:52:33;37.85;;;18.70;;
50988;SDS011;37008;52.210;21.112;2024-02-21T06:54:59;35.10;;;17.92;;
50988;SDS011;37008;52.210;21.112;2024-02-21T06:57:25;31.63;;;17.83;;
50988;SDS011;37008;52.210;21.112;2024-02-21T06:59:51;32.45;;;17.48;;
50988;SDS011;37008;52.210;21.112;2024-02-21T07:02:16;34.58;;;17.45;;
50988;SDS011;37008;52.210;21.112;2024-02-21T07:04:42;33.42;;;18.13;;
50988;SDS011;37008;52.210;21.112;2024-02-21T07:07:08;34.15;;;18.73;;
50988;SDS011;37008;52.210;21.112;2024-02-21T07:09:34;36.10;;;18.48;;
50988;SDS011;37008;52.210;21.112;2024-02-21T07:12:00;36.63;;;17.98;;
50988;SDS011;37008;52.210;21.112;2024-02-21T07:14:27;32.40;;;18.25;;
50988;SDS011;37008;52.210;21.112;2024-02-21T07:16:53;41.25;;;18.63;;
50988;SDS011;37008;52.210;21.112;2024-02-21T07:19:19;36.28;;;18.90;;
50988;SDS011;37008;52.210;21.112;2024-02-21T07:21:45;37.10;;;18.98;;
50988;SDS011;37008;52.210;21.112;2024-02-21T07:24:10;32.45;;;18.08;;
50988;SDS011;37008;52.210;21.112;2024-02-21T07:26:37;40.03;;;17.98;;
50988;SDS011;37008;52.210;21.112;2024-02-21T07:29:06;46.60;;;20.30;;
50988;SDS011;37008;52.210;21.112;2024-02-21T07:31:38;36.15;;;18.58;;
50988;SDS011;37008;52.210;21.112;2024-02-21T07:34:05;38.78;;;18.77;;
50988;SDS011;37008;52.210;21.112;2024-02-21T07:36:30;36.08;;;18.05;;
50988;SDS011;37008;52.210;21.112;2024-02-21T07:38:56;40.88;;;20.08;;
50988;SDS011;37008;52.210;21.112;2024-02-21T07:41:21;36.65;;;19.95;;
50988;SDS011;37008;52.210;21.112;2024-02-21T07:43:47;34.05;;;18.25;;
50988;SDS011;37008;52.210;21.112;2024-02-21T07:46:13;47.67;;;20.10;;
50988;SDS011;37008;52.210;21.112;2024-02-21T07:48:39;37.10;;;19.05;;
50988;SDS011;37008;52.210;21.112;2024-02-21T07:51:05;43.22;;;19.55;;
50988;SDS011;37008;52.210;21.112;2024-02-21T07:53:31;36.33;;;17.90;;
50988;SDS011;37008;52.210;21.112;2024-02-21T07:55:56;33.78;;;19.60;;
50988;SDS011;37008;52.210;21.112;2024-02-21T07:58:22;42.72;;;19.40;;
50988;SDS011;37008;52.210;21.112;2024-02-21T08:00:48;37.88;;;17.60;;
50988;SDS011;37008;52.210;21.112;2024-02-21T08:03:13;41.90;;;18.50;;
50988;SDS011;37008;52.210;21.112;2024-02-21T08:05:40;43.05;;;19.45;;
50988;SDS011;37008;52.210;21.112;2024-02-21T08:08:06;38.40;;;19.60;;
50988;SDS011;37008;52.210;21.112;2024-02-21T08:10:33;47.88;;;19.95;;
50988;SDS011;37008;52.210;21.112;2024-02-21T08:12:59;42.58;;;19.10;;
50988;SDS011;37008;52.210;21.112;2024-02-21T08:15:24;49.38;;;19.58;;
50988;SDS011;37008;52.210;21.112;2024-02-21T08:17:54;47.20;;;20.52;;
50988;SDS011;37008;52.210;21.112;2024-02-21T08:20:26;44.85;;;21.35;;
50988;SDS011;37008;52.210;21.112;2024-02-21T08:22:52;42.72;;;22.33;;
50988;SDS011;37008;52.210;21.112;2024-02-21T08:25:17;41.08;;;20.88;;
50988;SDS011;37008;52.210;21.112;2024-02-21T08:27:43;41.92;;;21.73;;
50988;SDS011;37008;52.210;21.112;2024-02-21T08:30:10;36.97;;;19.58;;
50988;SDS011;37008;52.210;21.112;2024-02-21T08:32:36;45.15;;;19.20;;
50988;SDS011;37008;52.210;21.112;2024-02-21T08:35:02;43.08;;;20.40;;
50988;SDS011;37008;52.210;21.112;2024-02-21T08:37:28;42.85;;;18.38;;
50988;SDS011;37008;52.210;21.112;2024-02-21T08:39:53;37.22;;;19.63;;
50988;SDS011;37008;52.210;21.112;2024-02-21T08:42:19;40.40;;;18.50;;
50988;SDS011;37008;52.210;21.112;2024-02-21T08:44:45;36.90;;;18.10;;
50988;SDS011;37008;52.210;21.112;2024-02-21T08:47:10;40.85;;;19.83;;
50988;SDS011;37008;52.210;21.112;2024-02-21T08:49:36;35.17;;;17.23;;
50988;SDS011;37008;52.210;21.112;2024-02-21T08:52:02;41.13;;;18.30;;
50988;SDS011;37008;52.210;21.112;2024-02-21T08:54:28;31.02;;;17.05;;
50988;SDS011;37008;52.210;21.112;2024-02-21T08:56:54;37.17;;;18.20;;
50988;SDS011;37008;52.210;21.112;2024-02-21T08:59:21;46.58;;;17.40;;
50988;SDS011;37008;52.210;21.112;2024-02-21T09:01:47;36.28;;;17.27;;
50988;SDS011;37008;52.210;21.112;2024-02-21T09:04:12;38.35;;;17.25;;
50988;SDS011;37008;52.210;21.112;2024-02-21T09:06:38;38.65;;;17.45;;
50988;SDS011;37008;52.210;21.112;2024-02-21T09:09:07;40.83;;;18.13;;
50988;SDS011;37008;52.210;21.112;2024-02-21T09:11:34;35.58;;;18.33;;
50988;SDS011;37008;52.210;21.112;2024-02-21T09:14:00;32.40;;;17.08;;
50988;SDS011;37008;52.210;21.112;2024-02-21T09:16:26;38.33;;;17.98;;
50988;SDS011;37008;52.210;21.112;2024-02-21T09:18:51;39.13;;;17.50;;
50988;SDS011;37008;52.210;21.112;2024-02-21T09:21:17;34.20;;;15.85;;
50988;SDS011;37008;52.210;21.112;2024-02-21T09:23:43;36.63;;;17.95;;
50988;SDS011;37008;52.210;21.112;2024-02-21T09:26:10;51.10;;;22.27;;
50988;SDS011;37008;52.210;21.112;2024-02-21T09:28:39;41.60;;;16.05;;
50988;SDS011;37008;52.210;21.112;2024-02-21T09:31:04;33.38;;;15.63;;
50988;SDS011;37008;52.210;21.112;2024-02-21T09:33:30;33.88;;;15.35;;
50988;SDS011;37008;52.210;21.112;2024-02-21T09:35:56;35.08;;;14.57;;
50988;SDS011;37008;52.210;21.112;2024-02-21T09:38:21;38.85;;;16.55;;
50988;SDS011;37008;52.210;21.112;2024-02-21T09:40:47;36.83;;;14.18;;
50988;SDS011;37008;52.210;21.112;2024-02-21T09:43:18;39.63;;;16.08;;
50988;SDS011;37008;52.210;21.112;2024-02-21T09:45:46;30.80;;;13.38;;
50988;SDS011;37008;52.210;21.112;2024-02-21T09:51:12;34.63;;;12.88;;
50988;SDS011;37008;52.210;21.112;2024-02-21T09:53:40;35.88;;;13.93;;
50988;SDS011;37008;52.210;21.112;2024-02-21T09:56:10;33.63;;;12.20;;
50988;SDS011;37008;52.210;21.112;2024-02-21T09:58:36;30.00;;;12.43;;
50988;SDS011;37008;52.210;21.112;2024-02-21T10:01:02;30.13;;;12.48;;
50988;SDS011;37008;52.210;21.112;2024-02-21T10:03:32;31.00;;;11.52;;
50988;SDS011;37008;52.210;21.112;2024-02-21T10:06:00;31.75;;;10.65;;
50988;SDS011;37008;52.210;21.112;2024-02-21T10:08:27;25.38;;;9.82;;
50988;SDS011;37008;52.210;21.112;2024-02-21T10:10:52;32.40;;;10.25;;
50988;SDS011;37008;52.210;21.112;2024-02-21T10:13:27;28.83;;;8.85;;
50988;SDS011;37008;52.210;21.112;2024-02-21T10:18:30;27.05;;;9.95;;
50988;SDS011;37008;52.210;21.112;2024-02-21T10:21:03;34.10;;;10.68;;
50988;SDS011;37008;52.210;21.112;2024-02-21T10:23:40;25.45;;;10.35;;
50988;SDS011;37008;52.210;21.112;2024-02-21T10:26:07;28.40;;;10.85;;
50988;SDS011;37008;52.210;21.112;2024-02-21T10:28:33;28.77;;;8.82;;
50988;SDS011;37008;52.210;21.112;2024-02-21T10:30:58;23.80;;;8.52;;
50988;SDS011;37008;52.210;21.112;2024-02-21T10:33:24;26.98;;;8.80;;
50988;SDS011;37008;52.210;21.112;2024-02-21T10:35:52;28.67;;;8.38;;
50988;SDS011;37008;52.210;21.112;2024-02-21T10:38:18;19.60;;;8.15;;
50988;SDS011;37008;52.210;21.112;2024-02-21T10:40:44;26.20;;;8.27;;
50988;SDS011;37008;52.210;21.112;2024-02-21T10:43:12;22.25;;;7.82;;
50988;SDS011;37008;52.210;21.112;2024-02-21T10:45:39;25.35;;;8.95;;
50988;SDS011;37008;52.210;21.112;2024-02-21T10:48:14;26.52;;;9.18;;
50988;SDS011;37008;52.210;21.112;2024-02-21T10:53:38;30.23;;;10.23;;
50988;SDS011;37008;52.210;21.112;2024-02-21T10:58:36;21.13;;;9.32;;
50988;SDS011;37008;52.210;21.112;2024-02-21T11:01:03;25.80;;;10.00;;
50988;SDS011;37008;52.210;21.112;2024-02-21T11:03:30;32.53;;;10.48;;
50988;SDS011;37008;52.210;21.112;2024-02-21T11:05:56;25.65;;;10.40;;
50988;SDS011;37008;52.210;21.112;2024-02-21T11:08:22;29.85;;;9.90;;
50988;SDS011;37008;52.210;21.112;2024-02-21T11:10:50;29.02;;;10.60;;
50988;SDS011;37008;52.210;21.112;2024-02-21T11:13:15;27.70;;;10.23;;
50988;SDS011;37008;52.210;21.112;2024-02-21T11:15:41;27.10;;;10.45;;
50988;SDS011;37008;52.210;21.112;2024-02-21T11:18:07;31.77;;;11.35;;
50988;SDS011;37008;52.210;21.112;2024-02-21T11:20:36;37.58;;;12.18;;
50988;SDS011;37008;52.210;21.112;2024-02-21T11:23:02;28.50;;;12.20;;
50988;SDS011;37008;52.210;21.112;2024-02-21T11:25:28;31.70;;;13.45;;
50988;SDS011;37008;52.210;21.112;2024-02-21T11:27:59;33.60;;;13.13;;
50988;SDS011;37008;52.210;21.112;2024-02-21T11:30:31;29.80;;;12.50;;
50988;SDS011;37008;52.210;21.112;2024-02-21T11:33:06;33.20;;;13.65;;
50988;SDS011;37008;52.210;21.112;2024-02-21T11:35:35;44.03;;;19.63;;
50988;SDS011;37008;52.210;21.112;2024-02-21T11:38:11;40.85;;;15.45;;
50988;SDS011;37008;52.210;21.112;2024-02-21T11:40:43;37.65;;;15.70;;
50988;SDS011;37008;52.210;21.112;2024-02-21T11:43:09;36.80;;;15.45;;
50988;SDS011;37008;52.210;21.112;2024-02-21T11:45:35;35.63;;;15.43;;
50988;SDS011;37008;52.210;21.112;2024-02-21T11:48:01;33.38;;;15.48;;
50988;SDS011;37008;52.210;21.112;2024-02-21T11:50:30;31.90;;;15.82;;
50988;SDS011;37008;52.210;21.112;2024-02-21T11:52:56;41.15;;;18.95;;
50988;SDS011;37008;52.210;21.112;2024-02-21T11:55:22;46.28;;;20.17;;
50988;SDS011;37008;52.210;21.112;2024-02-21T11:57:48;43.63;;;20.17;;
50988;SDS011;37008;52.210;21.112;2024-02-21T12:00:14;36.40;;;21.42;;
50988;SDS011;37008;52.210;21.112;2024-02-21T12:02:42;34.13;;;17.80;;
50988;SDS011;37008;52.210;21.112;2024-02-21T12:05:08;40.22;;;19.70;;
50988;SDS011;37008;52.210;21.112;2024-02-21T12:07:36;44.75;;;20.33;;
50988;SDS011;37008;52.210;21.112;2024-02-21T12:10:06;40.42;;;19.30;;
50988;SDS011;37008;52.210;21.112;2024-02-21T12:12:39;45.58;;;21.48;;
50988;SDS011;37008;52.210;21.112;2024-02-21T12:15:05;60.40;;;21.58;;
50988;SDS011;37008;52.210;21.112;2024-02-21T12:17:33;44.33;;;20.50;;
50988;SDS011;37008;52.210;21.112;2024-02-21T12:20:00;39.40;;;20.50;;
50988;SDS011;37008;52.210;21.112;2024-02-21T12:22:26;52.97;;;22.63;;
50988;SDS011;37008;52.210;21.112;2024-02-21T12:24:53;40.60;;;21.30;;
50988;SDS011;37008;52.210;21.112;2024-02-21T12:27:18;43.45;;;19.40;;
50988;SDS011;37008;52.210;21.112;2024-02-21T12:29:44;41.97;;;20.23;;
50988;SDS011;37008;52.210;21.112;2024-02-21T12:32:10;48.10;;;22.15;;
50988;SDS011;37008;52.210;21.112;2024-02-21T12:34:36;44.97;;;21.05;;
50988;SDS011;37008;52.210;21.112;2024-02-21T12:37:02;50.65;;;21.98;;
50988;SDS011;37008;52.210;21.112;2024-02-21T12:39:30;43.75;;;21.67;;
50988;SDS011;37008;52.210;21.112;2024-02-21T12:41:57;41.25;;;21.83;;
50988;SDS011;37008;52.210;21.112;2024-02-21T12:44:23;46.08;;;20.27;;
50988;SDS011;37008;52.210;21.112;2024-02-21T12:46:49;41.08;;;20.48;;
50988;SDS011;37008;52.210;21.112;2024-02-21T12:49:17;47.75;;;24.45;;
50988;SDS011;37008;52.210;21.112;2024-02-21T12:51:43;44.40;;;23.73;;
50988;SDS011;37008;52.210;21.112;2024-02-21T12:54:11;41.35;;;20.83;;
50988;SDS011;37008;52.210;21.112;2024-02-21T12:56:37;41.78;;;21.02;;
50988;SDS011;37008;52.210;21.112;2024-02-21T12:59:03;46.35;;;20.92;;
50988;SDS011;37008;52.210;21.112;2024-02-21T13:01:28;42.22;;;21.27;;
50988;SDS011;37008;52.210;21.112;2024-02-21T13:03:54;43.72;;;20.27;;
50988;SDS011;37008;52.210;21.112;2024-02-21T13:06:20;44.30;;;20.17;;
50988;SDS011;37008;52.210;21.112;2024-02-21T13:08:46;44.05;;;22.20;;
50988;SDS011;37008;52.210;21.112;2024-02-21T13:11:12;54.22;;;25.80;;
50988;SDS011;37008;52.210;21.112;2024-02-21T13:13:38;36.28;;;17.52;;
50988;SDS011;37008;52.210;21.112;2024-02-21T13:16:03;42.75;;;21.27;;
50988;SDS011;37008;52.210;21.112;2024-02-21T13:18:29;38.28;;;21.08;;
50988;SDS011;37008;52.210;21.112;2024-02-21T13:20:57;46.83;;;23.50;;
50988;SDS011;37008;52.210;21.112;2024-02-21T13:23:23;41.58;;;22.42;;
50988;SDS011;37008;52.210;21.112;2024-02-21T13:25:48;40.05;;;22.05;;
50988;SDS011;37008;52.210;21.112;2024-02-21T13:28:15;64.20;;;29.00;;
50988;SDS011;37008;52.210;21.112;2024-02-21T13:30:41;45.25;;;25.80;;
50988;SDS011;37008;52.210;21.112;2024-02-21T13:33:07;46.17;;;24.27;;
50988;SDS011;37008;52.210;21.112;2024-02-21T13:35:34;47.85;;;23.42;;
50988;SDS011;37008;52.210;21.112;2024-02-21T13:38:01;49.60;;;23.58;;
50988;SDS011;37008;52.210;21.112;2024-02-21T13:40:28;79.28;;;40.10;;
50988;SDS011;37008;52.210;21.112;2024-02-21T13:42:53;43.90;;;22.05;;
50988;SDS011;37008;52.210;21.112;2024-02-21T13:45:19;48.88;;;27.90;;
50988;SDS011;37008;52.210;21.112;2024-02-21T13:47:45;76.95;;;40.67;;
50988;SDS011;37008;52.210;21.112;2024-02-21T13:50:11;52.25;;;29.02;;
50988;SDS011;37008;52.210;21.112;2024-02-21T13:52:39;61.50;;;31.25;;
50988;SDS011;37008;52.210;21.112;2024-02-21T13:55:05;68.85;;;35.78;;
50988;SDS011;37008;52.210;21.112;2024-02-21T13:57:34;66.25;;;34.33;;
50988;SDS011;37008;52.210;21.112;2024-02-21T14:00:01;54.45;;;26.48;;
50988;SDS011;37008;52.210;21.112;2024-02-21T14:02:28;52.33;;;27.70;;
50988;SDS011;37008;52.210;21.112;2024-02-21T14:04:53;55.63;;;30.13;;
50988;SDS011;37008;52.210;21.112;2024-02-21T14:07:20;48.92;;;24.75;;
50988;SDS011;37008;52.210;21.112;2024-02-21T14:09:46;49.08;;;25.10;;
50988;SDS011;37008;52.210;21.112;2024-02-21T14:12:11;39.08;;;21.08;;
50988;SDS011;37008;52.210;21.112;2024-02-21T14:14:37;59.88;;;32.25;;
50988;SDS011;37008;52.210;21.112;2024-02-21T14:17:03;79.63;;;44.95;;